Terminal Aerodrome Forecast
Issued by NWS Sioux Falls, SD

Home | Current Version | Previous Version | Graphics & Text | Print | Product List | Glossary On
Versions: 1 2 3 4 5 6 7 8 9 10 11 12 13 14 15 16 17 18 19 20 21 22 23 24 25 26 27 28 29
000
FTUS43 KFSD 311142
TAFSUX
TAF
KSUX 311142Z 3112/0112 11006KT P6SM FEW030 SCT250
     FM311400 13009KT P6SM BKN035
     FM311700 13013KT P6SM SCT035 BKN150
     FM010200 10007KT P6SM BKN090
     FM010900 12009KT P6SM BKN030=

USA.gov is the U.S. government's official web portal to all federal, state and local government web resources and services.